Time;durP1;ratioP1;P1;durP2;ratioP2;P2;SDS_P1;SDS_P2;PMS_P1;PMS_P2;Temp;Humidity;BMP_temperature;BMP_pressure;BME280_temperature;BME280_humidity;BME280_pressure;Samples;Min_cycle;Max_cycle;Signal;HPM_P1;HPM_P2
2023/08/06 00:01:04;;;;;;;3.95;2.00;;;18.80;85.90;;;;;;6161667;23;20052;-90
2023/08/06 00:03:31;;;;;;;4.77;2.33;;;18.80;85.90;;;;;;6161481;23;20099;-90
2023/08/06 00:05:58;;;;;;;8.00;2.72;;;18.80;86.00;;;;;;6131875;23;20017;-90
2023/08/06 00:08:25;;;;;;;7.50;3.08;;;18.80;86.00;;;;;;6139953;23;20439;-89
2023/08/06 00:10:52;;;;;;;5.85;3.05;;;18.80;85.90;;;;;;6157452;23;20471;-90
2023/08/06 00:13:19;;;;;;;6.22;2.50;;;18.80;86.00;;;;;;6136288;23;20017;-89
2023/08/06 00:15:46;;;;;;;6.53;3.20;;;18.70;86.10;;;;;;6136485;23;20024;-89
2023/08/06 00:18:13;;;;;;;6.72;3.70;;;18.70;86.30;;;;;;6156061;23;20021;-89
2023/08/06 00:20:43;;;;;;;7.38;3.08;;;18.60;86.30;;;;;;6142534;23;20112;-90
2023/08/06 00:23:10;;;;;;;8.65;4.18;;;18.70;86.30;;;;;;6124950;23;20040;-89
2023/08/06 00:25:38;;;;;;;9.40;3.80;;;18.70;86.40;;;;;;6185702;23;20469;-90
2023/08/06 00:28:05;;;;;;;7.93;3.87;;;18.70;86.40;;;;;;6161031;23;20025;-90
2023/08/06 00:30:32;;;;;;;7.43;3.22;;;18.60;86.60;;;;;;6161502;23;20024;-90
2023/08/06 00:32:59;;;;;;;6.88;3.60;;;18.50;86.70;;;;;;6185689;23;20344;-89
2023/08/06 00:35:26;;;;;;;8.00;4.10;;;18.50;86.70;;;;;;6161214;23;20474;-90
2023/08/06 00:37:53;;;;;;;6.70;3.75;;;18.60;86.70;;;;;;6161252;23;20064;-89
2023/08/06 00:40:22;;;;;;;6.80;3.40;;;18.50;86.40;;;;;;6175332;23;20452;-89
2023/08/06 00:42:49;;;;;;;7.22;4.13;;;18.50;86.50;;;;;;6161257;23;20076;-89
2023/08/06 00:45:16;;;;;;;5.95;3.10;;;18.50;86.60;;;;;;6160385;23;20021;-89
2023/08/06 00:47:44;;;;;;;8.10;3.50;;;18.50;86.50;;;;;;6136458;23;20399;-89
2023/08/06 00:50:11;;;;;;;4.45;2.30;;;18.40;86.70;;;;;;6155785;23;20396;-89
2023/08/06 00:52:38;;;;;;;5.50;2.63;;;18.40;86.70;;;;;;6153585;23;20021;-90
2023/08/06 00:55:06;;;;;;;5.32;2.60;;;18.40;86.70;;;;;;6136419;23;20017;-89
2023/08/06 00:57:34;;;;;;;4.88;2.50;;;18.40;86.70;;;;;;6136644;23;20053;-89
2023/08/06 01:00:02;;;;;;;4.47;2.30;;;18.30;86.80;;;;;;6161198;23;20028;-90
2023/08/06 01:02:29;;;;;;;4.38;2.30;;;18.30;86.80;;;;;;6136369;23;20107;-90
2023/08/06 01:04:57;;;;;;;5.00;2.47;;;18.30;86.90;;;;;;6136141;23;20017;-90
2023/08/06 01:08:01;;;;;;;5.65;2.47;;;18.30;86.80;;;;;;6161024;23;20054;-89
2023/08/06 01:10:38;;;;;;;4.25;1.88;;;18.30;86.90;;;;;;6130945;23;20017;-89
2023/08/06 01:13:27;;;;;;;4.93;2.30;;;18.30;86.90;;;;;;6158729;23;20474;-91
2023/08/06 01:16:01;;;;;;;4.88;2.20;;;18.20;87.10;;;;;;6136299;23;20016;-90
2023/08/06 01:18:28;;;;;;;5.03;1.93;;;18.30;87.20;;;;;;6161131;23;20033;-89
2023/08/06 01:20:58;;;;;;;4.53;1.98;;;18.30;87.00;;;;;;6136695;23;20017;-89
2023/08/06 01:23:25;;;;;;;4.70;2.50;;;18.30;86.90;;;;;;6160323;23;20104;-89
2023/08/06 01:26:30;;;;;;;5.45;2.70;;;18.40;86.80;;;;;;6160465;23;20021;-89
2023/08/06 01:29:23;;;;;;;6.97;2.95;;;18.50;86.80;;;;;;6128483;23;20028;-89
2023/08/06 01:31:52;;;;;;;7.23;2.47;;;18.50;86.70;;;;;;6160616;23;20116;-90
2023/08/06 01:34:30;;;;;;;5.10;2.35;;;18.50;86.60;;;;;;6160756;23;20080;-90
2023/08/06 01:36:59;;;;;;;6.72;2.70;;;18.50;86.50;;;;;;6160811;23;20017;-90
2023/08/06 01:39:26;;;;;;;4.68;2.33;;;18.50;86.40;;;;;;6136137;23;20045;-90
2023/08/06 01:41:55;;;;;;;5.55;2.33;;;18.40;86.30;;;;;;6160575;23;20013;-90
2023/08/06 01:44:23;;;;;;;5.77;2.60;;;18.40;86.40;;;;;;6136346;23;20025;-90
2023/08/06 01:46:50;;;;;;;4.88;2.10;;;18.40;86.50;;;;;;6160566;23;20084;-90
2023/08/06 01:49:17;;;;;;;6.10;2.38;;;18.40;86.40;;;;;;6160888;23;20100;-90
2023/08/06 01:51:44;;;;;;;4.05;1.70;;;18.30;86.50;;;;;;6146667;23;20111;-89
2023/08/06 01:54:11;;;;;;;5.78;2.10;;;18.30;86.60;;;;;;6185396;23;20017;-89
2023/08/06 01:56:38;;;;;;;3.63;1.40;;;18.40;86.50;;;;;;6185691;23;20379;-90
2023/08/06 01:59:05;;;;;;;4.55;1.70;;;18.40;86.30;;;;;;6185514;23;20021;-90
2023/08/06 02:01:32;;;;;;;5.32;2.00;;;18.40;86.20;;;;;;6153089;23;20017;-89
2023/08/06 02:03:59;;;;;;;4.20;1.70;;;18.40;86.40;;;;;;6185245;23;20020;-90
2023/08/06 02:06:26;;;;;;;2.60;1.40;;;18.40;86.30;;;;;;6160359;23;20025;-89
2023/08/06 02:08:54;;;;;;;2.40;1.40;;;18.50;86.10;;;;;;6160657;23;20072;-89
2023/08/06 02:11:21;;;;;;;6.03;1.80;;;18.50;86.00;;;;;;6160461;23;20028;-89
2023/08/06 02:13:48;;;;;;;3.55;2.00;;;18.50;85.70;;;;;;6160257;23;20344;-90
2023/08/06 02:16:18;;;;;;;7.20;2.58;;;18.60;85.80;;;;;;6160766;23;20017;-90
2023/08/06 02:18:45;;;;;;;6.30;2.35;;;18.60;85.60;;;;;;6160224;23;20096;-89
2023/08/06 02:21:12;;;;;;;5.57;2.30;;;18.50;85.70;;;;;;6160494;23;20021;-89
2023/08/06 02:23:39;;;;;;;6.55;2.90;;;18.50;85.80;;;;;;6160527;23;20102;-89
2023/08/06 02:26:06;;;;;;;7.03;3.60;;;18.50;85.80;;;;;;6160721;23;20063;-90
2023/08/06 02:28:33;;;;;;;7.57;3.20;;;18.40;86.00;;;;;;6160296;23;20021;-90
2023/08/06 02:31:01;;;;;;;7.50;3.75;;;18.40;86.00;;;;;;6160287;23;20115;-90
2023/08/06 02:33:28;;;;;;;7.27;3.73;;;18.50;86.00;;;;;;6160122;23;20013;-89
2023/08/06 02:36:04;;;;;;;7.88;3.85;;;18.50;85.90;;;;;;6161270;23;20021;-89
2023/08/06 02:38:31;;;;;;;8.93;4.00;;;18.50;85.80;;;;;;6162489;23;20048;-89
2023/08/06 02:41:01;;;;;;;7.65;4.57;;;18.60;85.70;;;;;;6162055;23;20017;-89
2023/08/06 02:43:29;;;;;;;9.30;4.88;;;18.60;85.60;;;;;;6162177;23;20021;-90
2023/08/06 02:46:02;;;;;;;8.93;5.00;;;18.60;85.50;;;;;;6162768;23;20021;-90
2023/08/06 02:48:29;;;;;;;11.07;5.50;;;18.60;85.40;;;;;;6162415;23;20111;-89
2023/08/06 02:50:59;;;;;;;8.20;4.63;;;18.70;85.50;;;;;;6161524;23;20025;-89
2023/08/06 02:53:29;;;;;;;9.48;4.28;;;18.60;85.50;;;;;;6161283;23;20032;-89
2023/08/06 02:55:58;;;;;;;10.20;4.95;;;18.60;85.50;;;;;;6161749;23;20017;-89
2023/08/06 02:58:33;;;;;;;10.70;5.10;;;18.60;85.40;;;;;;6163982;23;20482;-90
2023/08/06 03:01:08;;;;;;;11.20;5.18;;;18.60;85.50;;;;;;6184933;23;20407;-89
2023/08/06 03:03:54;;;;;;;8.68;4.43;;;18.60;85.60;;;;;;6165184;23;20112;-89
2023/08/06 03:06:27;;;;;;;8.88;4.70;;;18.60;85.60;;;;;;6185077;23;20339;-89
2023/08/06 03:08:57;;;;;;;9.95;5.20;;;18.60;85.50;;;;;;6161947;23;20108;-89
2023/08/06 03:11:25;;;;;;;10.60;4.57;;;18.60;85.60;;;;;;6162237;23;20041;-89
2023/08/06 03:13:57;;;;;;;7.97;4.78;;;18.60;85.80;;;;;;6162750;23;20021;-89
2023/08/06 03:16:24;;;;;;;10.60;4.75;;;18.60;85.80;;;;;;6186568;23;20017;-90
2023/08/06 03:18:51;;;;;;;10.10;5.10;;;18.60;85.70;;;;;;6161621;23;20476;-89
2023/08/06 03:21:20;;;;;;;10.93;5.07;;;18.60;85.80;;;;;;6162083;23;20064;-90
2023/08/06 03:23:48;;;;;;;9.20;5.20;;;18.60;85.80;;;;;;6161935;23;20474;-89
2023/08/06 03:26:19;;;;;;;9.95;5.05;;;18.60;85.70;;;;;;6162142;23;20021;-90
2023/08/06 03:28:47;;;;;;;10.48;5.35;;;18.60;85.50;;;;;;6161144;23;20346;-89
2023/08/06 03:31:15;;;;;;;9.50;4.75;;;18.70;85.40;;;;;;6162300;23;20423;-90
2023/08/06 03:33:45;;;;;;;11.32;5.53;;;18.60;85.30;;;;;;6136935;23;20067;-89
2023/08/06 03:36:15;;;;;;;9.73;5.53;;;18.60;85.20;;;;;;6162072;23;20020;-89
2023/08/06 03:38:42;;;;;;;10.90;5.50;;;18.60;85.30;;;;;;6161240;23;20017;-89
2023/08/06 03:41:12;;;;;;;10.88;5.50;;;18.60;85.50;;;;;;6137983;23;20514;-89
2023/08/06 03:43:39;;;;;;;11.07;5.68;;;18.50;85.60;;;;;;6156638;23;20018;-89
2023/08/06 03:46:11;;;;;;;11.93;6.00;;;18.30;85.90;;;;;;6126186;23;20093;-89
2023/08/06 03:48:38;;;;;;;10.23;5.60;;;18.40;86.00;;;;;;6161514;23;20028;-89
2023/08/06 03:51:06;;;;;;;10.75;5.70;;;18.40;85.80;;;;;;6165852;23;20039;-90
2023/08/06 03:53:33;;;;;;;10.88;6.03;;;18.40;85.80;;;;;;6186154;23;20091;-90
2023/08/06 03:56:02;;;;;;;10.88;5.70;;;18.40;85.90;;;;;;6184257;23;20032;-90
2023/08/06 03:58:30;;;;;;;11.77;5.82;;;18.40;85.80;;;;;;6183395;23;20435;-89
2023/08/06 04:01:02;;;;;;;11.57;5.87;;;18.40;85.80;;;;;;6191448;23;20021;-89
2023/08/06 04:03:38;;;;;;;12.70;6.03;;;18.50;85.90;;;;;;6216306;23;20100;-89
2023/08/06 04:06:07;;;;;;;11.00;5.68;;;18.40;85.90;;;;;;6191778;23;20028;-89
2023/08/06 04:08:34;;;;;;;10.75;5.50;;;18.40;85.90;;;;;;6216002;23;20044;-89
2023/08/06 04:11:03;;;;;;;9.98;5.15;;;18.40;86.00;;;;;;6191489;23;20029;-89
2023/08/06 04:13:30;;;;;;;11.57;6.30;;;18.40;85.90;;;;;;6190957;23;20103;-89
2023/08/06 04:16:04;;;;;;;8.77;4.90;;;18.50;85.80;;;;;;6166963;23;20020;-88
2023/08/06 04:18:32;;;;;;;7.80;3.72;;;18.50;85.60;;;;;;6161418;23;20048;-89
2023/08/06 04:21:02;;;;;;;7.13;2.97;;;18.50;85.50;;;;;;6185969;23;20016;-89
2023/08/06 04:23:29;;;;;;;5.43;2.38;;;18.40;85.50;;;;;;6177376;23;20025;-89
2023/08/06 04:26:02;;;;;;;6.27;2.30;;;18.40;85.40;;;;;;6166123;23;20047;-89
2023/08/06 04:28:34;;;;;;;6.20;2.42;;;18.40;85.40;;;;;;6191067;23;20463;-89
2023/08/06 04:31:02;;;;;;;5.57;2.05;;;18.30;85.40;;;;;;6191007;23;20521;-88
2023/08/06 04:33:32;;;;;;;6.90;1.75;;;18.30;85.30;;;;;;6215101;23;20024;-89
2023/08/06 04:36:04;;;;;;;6.70;2.05;;;18.30;85.20;;;;;;6191924;23;20047;-89
2023/08/06 04:38:33;;;;;;;5.03;1.70;;;18.30;85.30;;;;;;6190867;23;20025;-89
2023/08/06 04:41:02;;;;;;;4.68;1.27;;;18.20;85.30;;;;;;6166132;23;20515;-89
2023/08/06 04:43:30;;;;;;;5.18;1.63;;;18.20;85.40;;;;;;6185655;23;20021;-89
2023/08/06 04:45:57;;;;;;;5.50;1.30;;;18.20;85.40;;;;;;6190638;23;20078;-89
2023/08/06 04:48:24;;;;;;;3.10;0.88;;;18.20;85.50;;;;;;6190955;23;20020;-89
2023/08/06 04:50:51;;;;;;;2.63;0.80;;;18.10;85.20;;;;;;6190702;23;20024;-89
2023/08/06 04:53:18;;;;;;;2.40;0.40;;;18.10;85.10;;;;;;6191105;23;20080;-89
2023/08/06 04:55:46;;;;;;;1.83;0.50;;;18.00;84.90;;;;;;6190607;23;20112;-89
2023/08/06 04:58:13;;;;;;;2.10;0.30;;;17.90;85.10;;;;;;6190601;23;20016;-89
2023/08/06 05:00:40;;;;;;;1.52;0.30;;;17.90;85.20;;;;;;6190289;23;20017;-89
2023/08/06 05:03:07;;;;;;;0.87;0.27;;;18.00;84.90;;;;;;6191132;23;20044;-89
2023/08/06 05:05:34;;;;;;;2.38;0.30;;;18.00;84.90;;;;;;6165755;23;20028;-89
2023/08/06 05:08:02;;;;;;;1.42;0.30;;;18.00;84.90;;;;;;6190189;23;20024;-89
2023/08/06 05:10:29;;;;;;;1.45;0.30;;;18.00;84.80;;;;;;6166010;23;20031;-90
2023/08/06 05:12:56;;;;;;;1.08;0.40;;;18.00;84.90;;;;;;6190140;23;20417;-89
2023/08/06 05:15:25;;;;;;;1.40;0.30;;;17.90;84.80;;;;;;6190552;23;20020;-89
2023/08/06 05:17:52;;;;;;;1.60;0.30;;;17.90;84.80;;;;;;6190809;23;20115;-90
2023/08/06 05:20:20;;;;;;;3.58;0.20;;;17.90;84.80;;;;;;6190512;23;20447;-89
2023/08/06 05:22:47;;;;;;;0.75;0.20;;;17.90;84.60;;;;;;6165825;23;20027;-89
2023/08/06 05:25:14;;;;;;;0.70;0.30;;;17.90;84.50;;;;;;6189776;23;20021;-89
2023/08/06 05:27:41;;;;;;;1.00;0.23;;;17.90;84.60;;;;;;6190520;23;20024;-89
2023/08/06 05:30:10;;;;;;;1.48;0.30;;;17.90;84.80;;;;;;6165947;23;20024;-89
2023/08/06 05:32:37;;;;;;;1.58;0.30;;;17.90;84.60;;;;;;6189845;23;20023;-89
2023/08/06 05:35:04;;;;;;;0.85;0.40;;;17.90;84.70;;;;;;6190258;23;20020;-89
2023/08/06 05:37:31;;;;;;;1.65;0.40;;;17.90;84.80;;;;;;6190294;23;20013;-89
2023/08/06 05:39:58;;;;;;;1.43;0.43;;;17.90;85.00;;;;;;6166207;23;20026;-89
2023/08/06 05:42:26;;;;;;;3.53;0.47;;;17.90;84.90;;;;;;6190585;23;20020;-89
2023/08/06 05:44:53;;;;;;;1.85;0.40;;;17.90;85.10;;;;;;6215131;23;20324;-89
2023/08/06 05:47:20;;;;;;;4.93;0.50;;;17.90;84.90;;;;;;6165638;23;20020;-91
2023/08/06 05:49:47;;;;;;;2.40;0.50;;;17.90;84.80;;;;;;6190430;23;20451;-91
2023/08/06 05:52:14;;;;;;;2.67;0.53;;;18.00;84.80;;;;;;6190739;23;20028;-91
2023/08/06 05:54:41;;;;;;;3.97;0.65;;;17.90;84.70;;;;;;6190757;23;20346;-91
2023/08/06 05:57:08;;;;;;;1.77;0.30;;;18.00;84.70;;;;;;6190328;23;20103;-91
2023/08/06 05:59:35;;;;;;;1.05;0.30;;;17.80;84.70;;;;;;6166041;23;20021;-90
2023/08/06 06:02:02;;;;;;;1.83;0.40;;;17.60;84.30;;;;;;6190769;23;20036;-91
2023/08/06 06:04:29;;;;;;;2.63;0.57;;;17.40;84.40;;;;;;6165545;23;20025;-91
2023/08/06 06:06:56;;;;;;;1.65;0.50;;;17.30;85.10;;;;;;6190175;23;20092;-91
2023/08/06 06:09:23;;;;;;;2.65;0.50;;;17.20;84.90;;;;;;6165642;23;20100;-91
2023/08/06 06:11:50;;;;;;;2.70;0.40;;;17.20;85.20;;;;;;6192289;23;20410;-91
2023/08/06 06:14:19;;;;;;;1.75;0.50;;;17.20;84.70;;;;;;6192594;23;20029;-91
2023/08/06 06:16:46;;;;;;;1.73;0.50;;;17.10;85.20;;;;;;6192638;23;20020;-91
2023/08/06 06:19:13;;;;;;;2.33;0.50;;;17.10;85.30;;;;;;6192419;23;20039;-91
2023/08/06 06:21:40;;;;;;;2.17;0.70;;;17.20;85.30;;;;;;6192521;23;20019;-91
2023/08/06 06:24:08;;;;;;;1.23;0.40;;;17.20;85.20;;;;;;6192300;23;20019;-91
2023/08/06 06:26:35;;;;;;;1.73;0.50;;;17.30;85.00;;;;;;6192215;23;20024;-91
2023/08/06 06:29:02;;;;;;;1.63;0.47;;;17.30;84.70;;;;;;6192206;23;20020;-91
2023/08/06 06:31:31;;;;;;;2.70;0.40;;;17.30;84.80;;;;;;6192164;23;20025;-91
2023/08/06 06:33:58;;;;;;;1.42;0.30;;;17.30;84.50;;;;;;6192495;23;20021;-91
2023/08/06 06:36:26;;;;;;;0.98;0.25;;;17.40;84.30;;;;;;6192267;23;20013;-91
2023/08/06 06:38:53;;;;;;;1.23;0.30;;;17.30;84.10;;;;;;6167299;23;20024;-91
2023/08/06 06:41:20;;;;;;;1.00;0.30;;;17.40;84.00;;;;;;6217131;23;20016;-90
2023/08/06 06:43:47;;;;;;;1.10;0.30;;;17.30;84.30;;;;;;6192493;23;20020;-92
2023/08/06 06:46:14;;;;;;;1.48;0.30;;;17.30;84.50;;;;;;6192227;23;20028;-92
2023/08/06 06:48:41;;;;;;;0.70;0.20;;;17.40;84.10;;;;;;6192285;23;20123;-92
2023/08/06 06:51:08;;;;;;;1.38;0.30;;;17.30;83.70;;;;;;6167457;23;20099;-92
2023/08/06 06:53:35;;;;;;;0.80;0.20;;;17.30;83.80;;;;;;6191953;23;20021;-92
2023/08/06 06:56:04;;;;;;;0.50;0.20;;;17.30;84.10;;;;;;6191854;23;20073;-92
2023/08/06 06:58:31;;;;;;;0.70;0.20;;;17.20;83.80;;;;;;6192013;23;20020;-91
2023/08/06 07:00:59;;;;;;;0.65;0.30;;;17.10;83.70;;;;;;6192050;23;20095;-92
2023/08/06 07:03:26;;;;;;;2.78;0.30;;;17.00;83.80;;;;;;6167676;23;20466;-92
2023/08/06 07:05:58;;;;;;;2.23;0.40;;;17.00;83.90;;;;;;6192126;23;20024;-92
2023/08/06 07:08:25;;;;;;;1.27;0.32;;;17.00;84.40;;;;;;6192206;23;20048;-92
2023/08/06 07:11:04;;;;;;;1.70;0.30;;;17.10;84.40;;;;;;6216868;23;20103;-92
2023/08/06 07:13:32;;;;;;;2.80;0.30;;;17.10;83.90;;;;;;6192146;23;20016;-92
2023/08/06 07:15:59;;;;;;;0.98;0.30;;;17.10;83.60;;;;;;6192456;23;20028;-92
2023/08/06 07:18:26;;;;;;;1.47;0.30;;;17.00;83.60;;;;;;6192215;23;20074;-92
2023/08/06 07:20:55;;;;;;;0.60;0.30;;;17.00;83.70;;;;;;6191797;23;20017;-92
2023/08/06 07:23:23;;;;;;;0.70;0.20;;;17.00;83.80;;;;;;6191480;23;20111;-92
2023/08/06 07:25:51;;;;;;;1.67;0.30;;;17.00;83.90;;;;;;6191589;23;20020;-92
2023/08/06 07:28:18;;;;;;;2.70;0.30;;;17.00;83.90;;;;;;6191609;23;20020;-93
2023/08/06 07:30:45;;;;;;;0.53;0.20;;;17.00;83.80;;;;;;6191460;23;20026;-93
2023/08/06 07:33:13;;;;;;;1.17;0.20;;;17.00;83.90;;;;;;6191686;23;20454;-92
2023/08/06 07:35:40;;;;;;;1.75;0.30;;;16.90;84.10;;;;;;6191589;23;20083;-91
2023/08/06 07:38:07;;;;;;;0.73;0.20;;;16.90;84.30;;;;;;6191686;23;20458;-90
2023/08/06 07:40:37;;;;;;;0.40;0.20;;;16.90;84.20;;;;;;6192030;23;20020;-90
2023/08/06 07:43:05;;;;;;;0.53;0.20;;;16.90;84.20;;;;;;6191369;23;20020;-90
2023/08/06 07:45:35;;;;;;;1.50;0.30;;;17.00;83.90;;;;;;6191270;23;20020;-88
2023/08/06 07:48:03;;;;;;;0.60;0.20;;;16.90;84.00;;;;;;6191221;23;20044;-90
2023/08/06 07:50:31;;;;;;;2.50;0.20;;;16.80;84.30;;;;;;6191236;23;20021;-89
2023/08/06 07:52:58;;;;;;;0.77;0.30;;;16.70;84.00;;;;;;6191157;23;20462;-91
2023/08/06 07:55:25;;;;;;;1.27;0.30;;;16.80;84.20;;;;;;6166558;23;20092;-91
2023/08/06 07:57:54;;;;;;;1.23;0.30;;;16.80;84.00;;;;;;6191485;23;20447;-90
2023/08/06 08:00:21;;;;;;;1.08;0.20;;;16.80;84.30;;;;;;6191179;23;20016;-90
2023/08/06 08:02:48;;;;;;;1.88;0.60;;;16.80;84.10;;;;;;6191335;23;20021;-90
2023/08/06 08:05:15;;;;;;;1.95;0.30;;;16.90;84.10;;;;;;6191077;23;20021;-88
2023/08/06 08:07:44;;;;;;;0.60;0.20;;;16.80;83.60;;;;;;6191275;23;20051;-88
2023/08/06 08:10:11;;;;;;;1.27;0.28;;;16.70;83.80;;;;;;6216135;23;20100;-88
2023/08/06 08:12:40;;;;;;;1.25;0.40;;;16.70;83.90;;;;;;6166147;23;20078;-88
2023/08/06 08:15:07;;;;;;;2.22;0.20;;;16.60;83.90;;;;;;6191185;23;20024;-89
2023/08/06 08:17:34;;;;;;;2.30;0.30;;;16.70;84.00;;;;;;6191078;23;20024;-90
2023/08/06 08:20:02;;;;;;;0.97;0.30;;;16.60;83.90;;;;;;6190940;23;20044;-89
2023/08/06 08:22:29;;;;;;;1.67;0.22;;;16.60;83.90;;;;;;6191210;23;20447;-90
2023/08/06 08:24:56;;;;;;;1.17;0.30;;;16.60;83.80;;;;;;6190820;23;20021;-89
2023/08/06 08:27:24;;;;;;;0.95;0.30;;;16.60;84.10;;;;;;6190949;23;20040;-89
2023/08/06 08:29:51;;;;;;;0.65;0.30;;;16.60;84.30;;;;;;6191204;23;20111;-89
2023/08/06 08:32:18;;;;;;;0.97;0.30;;;16.70;84.20;;;;;;6191036;23;20099;-89
2023/08/06 08:34:45;;;;;;;1.20;0.20;;;16.60;84.30;;;;;;6190571;23;20043;-90
2023/08/06 08:37:13;;;;;;;0.45;0.20;;;16.70;84.30;;;;;;6215662;23;20352;-89
2023/08/06 08:39:40;;;;;;;0.38;0.20;;;16.70;84.30;;;;;;6190815;23;20027;-89
2023/08/06 08:42:07;;;;;;;1.05;0.30;;;16.70;84.30;;;;;;6190883;23;20095;-90
2023/08/06 08:44:39;;;;;;;1.33;0.30;;;16.70;84.20;;;;;;6190728;23;20477;-90
2023/08/06 08:47:09;;;;;;;1.38;0.40;;;16.60;83.90;;;;;;6190729;23;20027;-90
2023/08/06 08:49:37;;;;;;;1.27;0.30;;;16.60;84.30;;;;;;6190527;23;20020;-90
2023/08/06 08:52:12;;;;;;;1.08;0.40;;;16.60;84.20;;;;;;6215608;23;20090;-89
2023/08/06 08:54:41;;;;;;;1.35;0.30;;;16.60;84.30;;;;;;6190416;23;20013;-90
2023/08/06 08:57:11;;;;;;;3.20;0.50;;;16.60;84.40;;;;;;6191870;23;20035;-90
2023/08/06 08:59:38;;;;;;;2.30;0.43;;;16.50;84.80;;;;;;6190496;23;20035;-91
2023/08/06 09:02:06;;;;;;;3.08;0.73;;;16.50;84.90;;;;;;6165714;23;20052;-88
2023/08/06 09:04:36;;;;;;;2.28;0.50;;;16.60;84.80;;;;;;6190833;23;20254;-90
2023/08/06 09:07:05;;;;;;;3.88;0.57;;;16.60;84.40;;;;;;6190632;23;20020;-92
2023/08/06 09:09:36;;;;;;;2.23;0.67;;;16.70;84.40;;;;;;6191136;23;20016;-91
2023/08/06 09:12:22;;;;;;;1.83;0.60;;;16.70;84.20;;;;;;6190984;23;20052;-89
2023/08/06 09:14:50;;;;;;;3.00;0.70;;;16.80;84.40;;;;;;6166065;23;20096;-96
2023/08/06 09:17:20;;;;;;;3.03;0.60;;;16.80;83.90;;;;;;6215849;23;20100;-88
2023/08/06 09:19:49;;;;;;;4.25;0.85;;;16.80;83.80;;;;;;6192174;23;20342;-87
2023/08/06 09:22:16;;;;;;;3.57;0.77;;;16.70;84.20;;;;;;6190906;23;20016;-91
2023/08/06 09:24:43;;;;;;;3.55;0.70;;;16.70;83.80;;;;;;6215097;23;20657;-86
2023/08/06 09:27:14;;;;;;;2.40;0.73;;;16.70;84.20;;;;;;6166191;23;20021;-90
2023/08/06 09:29:43;;;;;;;2.55;1.00;;;16.70;83.90;;;;;;6192216;23;20048;-89
2023/08/06 09:32:10;;;;;;;2.85;0.70;;;16.80;84.00;;;;;;6168542;23;20031;-90
2023/08/06 09:34:40;;;;;;;2.60;0.60;;;16.80;84.30;;;;;;6192053;23;20435;-93
2023/08/06 09:37:10;;;;;;;2.28;0.60;;;16.80;83.90;;;;;;6190744;23;20339;-88
2023/08/06 09:39:42;;;;;;;3.50;0.93;;;16.70;84.00;;;;;;6190904;23;20017;-87
2023/08/06 09:42:09;;;;;;;2.38;0.70;;;16.70;84.30;;;;;;6190317;23;20044;-89
2023/08/06 09:44:40;;;;;;;3.45;0.77;;;16.80;84.10;;;;;;6189953;23;20024;-91
2023/08/06 09:47:07;;;;;;;3.17;0.40;;;16.80;84.00;;;;;;6190908;23;20021;-90
2023/08/06 09:49:34;;;;;;;2.80;0.70;;;16.70;84.00;;;;;;6190121;23;20029;-86
2023/08/06 09:52:02;;;;;;;4.00;0.70;;;16.70;84.30;;;;;;6190398;23;20025;-87
2023/08/06 09:54:30;;;;;;;3.03;0.68;;;16.70;83.70;;;;;;6189830;23;20016;-87
2023/08/06 09:56:57;;;;;;;2.95;0.60;;;16.60;83.90;;;;;;6165421;23;20016;-87
2023/08/06 09:59:25;;;;;;;2.83;0.63;;;16.60;84.40;;;;;;6190209;23;20055;-87
2023/08/06 10:01:54;;;;;;;3.15;0.60;;;16.60;84.70;;;;;;6190742;23;20067;-88
2023/08/06 10:04:24;;;;;;;1.85;0.55;;;16.60;84.60;;;;;;6190792;23;20020;-91
2023/08/06 10:07:00;;;;;;;2.78;0.70;;;16.60;84.40;;;;;;6167290;23;20059;-90
2023/08/06 10:09:28;;;;;;;4.25;0.68;;;16.70;84.30;;;;;;6215227;23;20017;-90
2023/08/06 10:11:56;;;;;;;2.13;0.50;;;16.80;84.40;;;;;;6190965;23;20388;-90
2023/08/06 10:14:33;;;;;;;4.03;0.55;;;16.90;84.20;;;;;;6190309;23;20515;-89
2023/08/06 10:17:01;;;;;;;4.00;0.60;;;16.90;83.90;;;;;;6191013;23;20347;-89
2023/08/06 10:19:30;;;;;;;2.28;0.60;;;16.80;83.90;;;;;;6190398;23;20051;-90
2023/08/06 10:22:14;;;;;;;2.20;0.45;;;16.90;84.40;;;;;;6189983;23;20094;-90
2023/08/06 10:24:48;;;;;;;3.57;0.60;;;16.90;83.70;;;;;;6165763;23;20020;-91
2023/08/06 10:27:51;;;;;;;2.47;0.70;;;16.90;83.90;;;;;;6165301;23;20055;-92
2023/08/06 10:30:32;;;;;;;3.22;0.70;;;16.90;84.20;;;;;;6168877;23;20028;-93
2023/08/06 10:33:01;;;;;;;2.85;0.60;;;17.00;84.10;;;;;;6193955;23;20455;-92
2023/08/06 10:35:44;;;;;;;3.53;0.80;;;16.90;84.20;;;;;;6192016;23;20071;-92
2023/08/06 10:38:15;;;;;;;2.07;0.50;;;16.90;84.00;;;;;;6197410;23;20016;-91
2023/08/06 10:40:54;;;;;;;1.38;0.32;;;16.80;83.40;;;;;;6193196;23;20084;-91
2023/08/06 10:43:28;;;;;;;2.63;0.60;;;16.70;83.50;;;;;;6190747;23;20016;-90
2023/08/06 10:45:56;;;;;;;2.63;0.50;;;16.70;84.00;;;;;;6190439;23;20083;-92
2023/08/06 10:48:45;;;;;;;2.85;0.63;;;16.70;83.60;;;;;;6190496;23;20025;-89
2023/08/06 10:51:14;;;;;;;2.40;0.60;;;16.70;83.90;;;;;;6215345;23;20029;-90
2023/08/06 10:53:46;;;;;;;2.45;0.70;;;16.70;83.90;;;;;;6190672;23;20080;-91
2023/08/06 10:56:27;;;;;;;2.05;0.40;;;16.70;83.80;;;;;;6190839;23;20012;-92
2023/08/06 10:58:59;;;;;;;1.98;0.40;;;16.70;84.00;;;;;;6192270;23;20463;-89
2023/08/06 11:01:46;;;;;;;1.88;0.38;;;16.60;84.10;;;;;;6198093;23;20017;-95
2023/08/06 11:31:21;;;;;;;1.98;0.40;;;16.60;84.80;;;;;;6228929;23;20029;-96
2023/08/06 11:39:13;;;;;;;2.07;0.30;;;16.60;84.60;;;;;;5984375;24;20396;-92
2023/08/06 11:41:42;;;;;;;1.48;0.30;;;16.60;84.70;;;;;;5984652;24;20024;-93
2023/08/06 11:44:12;;;;;;;2.60;0.47;;;16.60;84.40;;;;;;6020632;23;20022;-92
2023/08/06 11:46:52;;;;;;;1.23;0.30;;;16.60;84.30;;;;;;6073915;23;20022;-93
2023/08/06 11:49:21;;;;;;;1.02;0.40;;;16.60;85.20;;;;;;6104341;23;20042;-95
2023/08/06 11:51:55;;;;;;;0.77;0.30;;;16.60;85.00;;;;;;6148962;23;20020;-92
2023/08/06 11:54:33;;;;;;;2.05;0.30;;;16.60;85.00;;;;;;6168427;23;20461;-93
2023/08/06 11:57:02;;;;;;;1.88;0.30;;;16.60;85.00;;;;;;6167780;23;20473;-93
2023/08/06 11:59:29;;;;;;;2.08;0.20;;;16.50;85.00;;;;;;6168020;23;20016;-94
2023/08/06 12:02:11;;;;;;;;;;;;;;;;;;;;;
2023/08/06 12:06:37;;;;;;;1.03;0.30;;;16.60;84.70;;;;;;6094977;23;20038;-96
2023/08/06 12:14:20;;;;;;;1.98;0.30;;;16.60;84.10;;;;;;6087319;23;20014;-96
2023/08/06 12:16:56;;;;;;;0.85;0.35;;;16.60;84.20;;;;;;6183297;23;20016;-96
2023/08/06 12:19:33;;;;;;;1.05;0.30;;;16.60;84.20;;;;;;6201238;23;20013;-95
2023/08/06 12:27:23;;;;;;;0.70;0.30;;;16.60;84.40;;;;;;6243159;22;20023;-96
2023/08/06 12:34:37;;;;;;;2.05;0.30;;;16.80;85.40;;;;;;6078632;23;20034;-95
2023/08/06 12:37:18;;;;;;;0.80;0.25;;;16.80;84.40;;;;;;6068683;23;20015;-94
2023/08/06 12:39:46;;;;;;;0.93;0.30;;;16.80;84.60;;;;;;6044631;23;20462;-95
2023/08/06 12:42:13;;;;;;;1.00;0.30;;;16.90;84.10;;;;;;6073384;23;20101;-93
2023/08/06 12:44:40;;;;;;;1.25;0.30;;;17.00;84.00;;;;;;6049183;23;20408;-93
2023/08/06 12:47:08;;;;;;;1.23;0.30;;;17.00;84.10;;;;;;6073800;23;20380;-94
2023/08/06 12:49:38;;;;;;;1.00;0.30;;;17.10;84.90;;;;;;6073194;23;20022;-93
2023/08/06 12:52:07;;;;;;;0.93;0.30;;;17.40;85.00;;;;;;6049850;23;20034;-95
2023/08/06 12:54:36;;;;;;;0.70;0.25;;;17.50;84.00;;;;;;6074255;23;20081;-94
2023/08/06 12:57:05;;;;;;;0.60;0.20;;;17.60;83.60;;;;;;6073237;23;20025;-94
2023/08/06 12:59:36;;;;;;;0.40;0.20;;;17.60;83.00;;;;;;6076454;23;20021;-96
2023/08/06 13:02:05;;;;;;;0.70;0.30;;;17.70;82.60;;;;;;6133302;23;20021;-94
2023/08/06 13:04:33;;;;;;;0.60;0.20;;;17.70;82.90;;;;;;6139065;23;20024;-93
2023/08/06 13:07:01;;;;;;;1.13;0.30;;;17.60;81.70;;;;;;6140580;23;20024;-94
2023/08/06 13:09:29;;;;;;;1.40;0.30;;;17.50;82.80;;;;;;6143568;23;20021;-95
2023/08/06 13:11:59;;;;;;;0.60;0.30;;;17.50;82.70;;;;;;6148330;23;20104;-96
2023/08/06 13:14:28;;;;;;;0.70;0.28;;;17.50;82.20;;;;;;6138098;23;20021;-96
2023/08/06 13:16:58;;;;;;;0.63;0.20;;;17.50;81.90;;;;;;6143726;23;20081;-92
2023/08/06 13:19:28;;;;;;;1.75;0.30;;;17.60;81.90;;;;;;6164303;23;20024;-89
2023/08/06 13:22:05;;;;;;;1.25;0.22;;;17.70;81.30;;;;;;6139327;23;20040;-94
2023/08/06 13:24:32;;;;;;;1.67;0.40;;;17.70;81.50;;;;;;6137799;23;20017;-90
2023/08/06 13:31:14;;;;;;;1.40;0.40;;;17.70;81.10;;;;;;6102541;23;20021;-95
2023/08/06 13:33:41;;;;;;;2.25;0.45;;;17.70;82.00;;;;;;6089592;23;20018;-96
2023/08/06 13:36:08;;;;;;;2.13;0.47;;;17.80;81.90;;;;;;6102508;23;20100;-89
2023/08/06 13:38:41;;;;;;;4.15;0.68;;;17.80;81.30;;;;;;6111262;23;20054;-93
2023/08/06 13:41:08;;;;;;;1.92;0.50;;;17.70;80.80;;;;;;6117152;23;20151;-95
2023/08/06 13:51:33;;;;;;;1.13;0.40;;;17.50;81.60;;;;;;6252513;22;20039;-95
2023/08/06 13:58:46;;;;;;;1.45;0.30;;;17.50;81.50;;;;;;6143338;23;20073;-96
2023/08/06 14:06:09;;;;;;;1.42;0.20;;;17.60;82.40;;;;;;6192347;23;20079;-95
2023/08/06 14:08:42;;;;;;;1.77;0.40;;;17.60;82.90;;;;;;6150419;23;20040;-96
2023/08/06 14:11:11;;;;;;;0.82;0.20;;;17.60;83.10;;;;;;6140825;23;20436;-95